Etusivu
METAR-TAF:

METAR-TAF

Lentoasemat :

Sundsvall-Timrån lentoasema

Sundsvall-Härnösand, Ruotsi

Leveyspiiri: 62-32N, Pituuspiiri: 017-27E, korkeus merenpinnasta: 4 m

Tämänhetkinen sää

Tämä raportti tehtiin 39 minuuttia sitten, kello 03.50 UTC
Tuuli 6 kn etelästä/lounaasta
Lämpötila 9°C
Kosteus 76%
Ilmanpaine 1000 hPa
Näkyvyys 10 km tai enemmän

METAR: ESNN 260350Z AUTO 20006KT 9999 OVC053/// 09/05 Q1000

Aika: 06:29 (04:29 UTC)

Sääennuste

Tämä raportti tehtiin 59 minuuttia sitten, kello 03.30 UTC
Ennuste voimassa 26. päivästä klo 04 UTC - 26. päivään klo 12 UTC
Tuuli 5 kn idästä/kaakosta
Näkyvyys 10 km tai enemmän
Hajonneita pilviä 3000 ft:n korkeudessa
heikkoa sadetta
Todennäköisyys 40%
26. päivästä klo 04 UTC - 26. päivään klo 12 UTC
sadetta
Tulossa
26. päivästä klo 09 UTC - 26. päivään klo 11 UTC
Tuuli 15 kn lännestä puuskistuen 25 kn:hen

TAF: ESNN 260330Z 2604/2612 12005KT 9999 -RA BKN030 PROB40 2604/2612 RA BECMG 2609/2611 27015G25KT

Säähavainnot ja -ennusteet yli 4000 lentoasemalta (METAR- ja TAF-raportit).

Käytössä olevat sääasemat on merkitty karttaan keltaisilla ja punaisilla pisteillä.

Aseta hiiri pisteen päälle nähdäksesi sääaseman nimen.

Klikkaa sitten nähdäksesi säähavainnot ja -ennusteet.

Kartan vaihtaminen: klikkaa mustalla rastilla varustettuja vihreitä pisteitä, niin voit zoomata sisään; viivalla varustettua vihreää pistettä, niin voit zoomata ulos tai vihreitä nuolia, niin pääset viereisille kartoille.


METAR-TAF: